sensor_id;sensor_type;location;lat;lon;timestamp;P1;durP1;ratioP1;P2;durP2;ratioP2
12826;SDS011;66927;48.812;9.118;2024-03-06T00:02:00;3.60;;;2.27;;
12826;SDS011;66927;48.812;9.118;2024-03-06T00:04:27;2.57;;;2.20;;
12826;SDS011;66927;48.812;9.118;2024-03-06T00:06:53;3.30;;;2.03;;
12826;SDS011;66927;48.812;9.118;2024-03-06T00:09:20;2.90;;;2.27;;
12826;SDS011;66927;48.812;9.118;2024-03-06T00:11:46;3.10;;;2.10;;
12826;SDS011;66927;48.812;9.118;2024-03-06T00:14:11;3.80;;;2.37;;
12826;SDS011;66927;48.812;9.118;2024-03-06T00:16:37;3.77;;;2.17;;
12826;SDS011;66927;48.812;9.118;2024-03-06T00:19:03;3.37;;;2.10;;
12826;SDS011;66927;48.812;9.118;2024-03-06T00:21:29;4.17;;;2.37;;
12826;SDS011;66927;48.812;9.118;2024-03-06T00:23:55;3.07;;;2.00;;
12826;SDS011;66927;48.812;9.118;2024-03-06T00:26:21;2.83;;;2.27;;
12826;SDS011;66927;48.812;9.118;2024-03-06T00:28:46;2.47;;;2.03;;
12826;SDS011;66927;48.812;9.118;2024-03-06T00:31:12;5.13;;;2.30;;
12826;SDS011;66927;48.812;9.118;2024-03-06T00:33:39;2.97;;;2.40;;
12826;SDS011;66927;48.812;9.118;2024-03-06T00:36:05;5.63;;;2.30;;
12826;SDS011;66927;48.812;9.118;2024-03-06T00:38:31;3.07;;;2.50;;
12826;SDS011;66927;48.812;9.118;2024-03-06T00:40:57;2.30;;;2.03;;
12826;SDS011;66927;48.812;9.118;2024-03-06T00:43:23;3.13;;;2.40;;
12826;SDS011;66927;48.812;9.118;2024-03-06T00:45:48;2.50;;;2.10;;
12826;SDS011;66927;48.812;9.118;2024-03-06T00:48:14;6.60;;;2.43;;
12826;SDS011;66927;48.812;9.118;2024-03-06T00:50:40;3.83;;;2.43;;
12826;SDS011;66927;48.812;9.118;2024-03-06T00:53:05;3.33;;;2.30;;
12826;SDS011;66927;48.812;9.118;2024-03-06T00:55:32;4.70;;;2.40;;
12826;SDS011;66927;48.812;9.118;2024-03-06T00:57:57;3.33;;;2.57;;
12826;SDS011;66927;48.812;9.118;2024-03-06T01:00:23;4.73;;;2.13;;
12826;SDS011;66927;48.812;9.118;2024-03-06T01:02:48;2.40;;;2.17;;
12826;SDS011;66927;48.812;9.118;2024-03-06T01:05:14;3.43;;;2.30;;
12826;SDS011;66927;48.812;9.118;2024-03-06T01:07:40;3.13;;;2.23;;
12826;SDS011;66927;48.812;9.118;2024-03-06T01:10:06;3.60;;;2.20;;
12826;SDS011;66927;48.812;9.118;2024-03-06T01:12:33;2.53;;;2.00;;
12826;SDS011;66927;48.812;9.118;2024-03-06T01:14:59;2.53;;;1.90;;
12826;SDS011;66927;48.812;9.118;2024-03-06T01:17:25;2.73;;;2.03;;
12826;SDS011;66927;48.812;9.118;2024-03-06T01:19:51;4.03;;;2.40;;
12826;SDS011;66927;48.812;9.118;2024-03-06T01:22:17;3.40;;;2.23;;
12826;SDS011;66927;48.812;9.118;2024-03-06T01:24:43;2.83;;;2.03;;
12826;SDS011;66927;48.812;9.118;2024-03-06T01:27:08;3.60;;;2.70;;
12826;SDS011;66927;48.812;9.118;2024-03-06T01:29:34;2.63;;;2.03;;
12826;SDS011;66927;48.812;9.118;2024-03-06T01:32:00;3.73;;;2.50;;
12826;SDS011;66927;48.812;9.118;2024-03-06T01:34:27;4.03;;;2.07;;
12826;SDS011;66927;48.812;9.118;2024-03-06T01:36:52;2.73;;;2.30;;
12826;SDS011;66927;48.812;9.118;2024-03-06T01:39:19;3.83;;;2.17;;
12826;SDS011;66927;48.812;9.118;2024-03-06T01:41:48;2.40;;;2.10;;
12826;SDS011;66927;48.812;9.118;2024-03-06T01:44:15;3.40;;;2.50;;
12826;SDS011;66927;48.812;9.118;2024-03-06T01:46:42;2.17;;;1.97;;
12826;SDS011;66927;48.812;9.118;2024-03-06T01:49:08;4.80;;;2.27;;
12826;SDS011;66927;48.812;9.118;2024-03-06T01:51:34;2.50;;;2.30;;
12826;SDS011;66927;48.812;9.118;2024-03-06T01:54:01;4.27;;;2.40;;
12826;SDS011;66927;48.812;9.118;2024-03-06T01:56:29;3.30;;;2.33;;
12826;SDS011;66927;48.812;9.118;2024-03-06T01:58:56;4.53;;;2.20;;
12826;SDS011;66927;48.812;9.118;2024-03-06T02:01:23;2.70;;;2.27;;
12826;SDS011;66927;48.812;9.118;2024-03-06T02:03:49;4.27;;;2.50;;
12826;SDS011;66927;48.812;9.118;2024-03-06T02:06:16;5.47;;;2.50;;
12826;SDS011;66927;48.812;9.118;2024-03-06T02:08:44;4.47;;;2.60;;
12826;SDS011;66927;48.812;9.118;2024-03-06T02:11:10;2.40;;;2.20;;
12826;SDS011;66927;48.812;9.118;2024-03-06T02:13:36;4.03;;;2.47;;
12826;SDS011;66927;48.812;9.118;2024-03-06T02:16:02;3.53;;;2.20;;
12826;SDS011;66927;48.812;9.118;2024-03-06T02:18:28;2.53;;;2.30;;
12826;SDS011;66927;48.812;9.118;2024-03-06T02:20:54;2.90;;;2.13;;
12826;SDS011;66927;48.812;9.118;2024-03-06T02:23:20;3.67;;;2.50;;
12826;SDS011;66927;48.812;9.118;2024-03-06T02:25:47;3.70;;;2.50;;
12826;SDS011;66927;48.812;9.118;2024-03-06T02:28:13;3.57;;;2.50;;
12826;SDS011;66927;48.812;9.118;2024-03-06T02:30:39;2.93;;;2.00;;
12826;SDS011;66927;48.812;9.118;2024-03-06T02:33:07;3.00;;;2.23;;
12826;SDS011;66927;48.812;9.118;2024-03-06T02:35:33;2.70;;;2.40;;
12826;SDS011;66927;48.812;9.118;2024-03-06T02:38:00;3.47;;;2.17;;
12826;SDS011;66927;48.812;9.118;2024-03-06T02:40:26;3.10;;;2.60;;
12826;SDS011;66927;48.812;9.118;2024-03-06T02:42:52;3.00;;;2.20;;
12826;SDS011;66927;48.812;9.118;2024-03-06T02:45:17;6.63;;;2.80;;
12826;SDS011;66927;48.812;9.118;2024-03-06T02:47:44;4.37;;;2.87;;
12826;SDS011;66927;48.812;9.118;2024-03-06T02:50:10;3.53;;;2.50;;
12826;SDS011;66927;48.812;9.118;2024-03-06T02:52:35;5.20;;;2.80;;
12826;SDS011;66927;48.812;9.118;2024-03-06T02:55:01;3.33;;;2.53;;
12826;SDS011;66927;48.812;9.118;2024-03-06T02:57:28;5.23;;;2.97;;
12826;SDS011;66927;48.812;9.118;2024-03-06T02:59:54;3.97;;;2.70;;
12826;SDS011;66927;48.812;9.118;2024-03-06T03:02:21;3.93;;;2.80;;
12826;SDS011;66927;48.812;9.118;2024-03-06T03:04:48;6.27;;;2.80;;
12826;SDS011;66927;48.812;9.118;2024-03-06T03:07:13;3.93;;;2.70;;
12826;SDS011;66927;48.812;9.118;2024-03-06T03:09:40;3.43;;;2.60;;
12826;SDS011;66927;48.812;9.118;2024-03-06T03:12:06;6.47;;;2.70;;
12826;SDS011;66927;48.812;9.118;2024-03-06T03:14:32;2.60;;;2.40;;
12826;SDS011;66927;48.812;9.118;2024-03-06T03:16:58;3.67;;;2.77;;
12826;SDS011;66927;48.812;9.118;2024-03-06T03:19:25;3.17;;;2.57;;
12826;SDS011;66927;48.812;9.118;2024-03-06T03:21:51;6.50;;;2.70;;
12826;SDS011;66927;48.812;9.118;2024-03-06T03:24:16;5.07;;;2.93;;
12826;SDS011;66927;48.812;9.118;2024-03-06T03:26:45;4.20;;;3.23;;
12826;SDS011;66927;48.812;9.118;2024-03-06T03:29:11;2.77;;;2.57;;
12826;SDS011;66927;48.812;9.118;2024-03-06T03:31:36;3.73;;;2.80;;
12826;SDS011;66927;48.812;9.118;2024-03-06T03:34:03;3.43;;;2.87;;
12826;SDS011;66927;48.812;9.118;2024-03-06T03:36:30;4.70;;;3.00;;
12826;SDS011;66927;48.812;9.118;2024-03-06T03:38:56;3.63;;;2.73;;
12826;SDS011;66927;48.812;9.118;2024-03-06T03:41:21;3.13;;;2.60;;
12826;SDS011;66927;48.812;9.118;2024-03-06T03:43:47;3.60;;;2.93;;
12826;SDS011;66927;48.812;9.118;2024-03-06T03:46:14;3.10;;;2.60;;
12826;SDS011;66927;48.812;9.118;2024-03-06T03:48:39;5.73;;;3.07;;
12826;SDS011;66927;48.812;9.118;2024-03-06T03:51:05;3.50;;;3.20;;
12826;SDS011;66927;48.812;9.118;2024-03-06T03:53:34;3.67;;;3.37;;
12826;SDS011;66927;48.812;9.118;2024-03-06T03:56:01;5.60;;;3.07;;
12826;SDS011;66927;48.812;9.118;2024-03-06T03:58:28;3.57;;;2.90;;
12826;SDS011;66927;48.812;9.118;2024-03-06T04:00:53;3.20;;;2.70;;
12826;SDS011;66927;48.812;9.118;2024-03-06T04:03:20;4.53;;;3.30;;
12826;SDS011;66927;48.812;9.118;2024-03-06T04:05:47;4.47;;;3.10;;
12826;SDS011;66927;48.812;9.118;2024-03-06T04:08:13;4.20;;;3.30;;
12826;SDS011;66927;48.812;9.118;2024-03-06T04:10:39;3.20;;;2.90;;
12826;SDS011;66927;48.812;9.118;2024-03-06T04:13:04;3.40;;;2.97;;
12826;SDS011;66927;48.812;9.118;2024-03-06T04:15:32;5.10;;;3.00;;
12826;SDS011;66927;48.812;9.118;2024-03-06T04:17:58;4.20;;;3.30;;
12826;SDS011;66927;48.812;9.118;2024-03-06T04:20:24;3.27;;;2.90;;
12826;SDS011;66927;48.812;9.118;2024-03-06T04:22:49;4.00;;;3.27;;
12826;SDS011;66927;48.812;9.118;2024-03-06T04:25:16;3.03;;;2.50;;
12826;SDS011;66927;48.812;9.118;2024-03-06T04:27:42;3.87;;;2.90;;
12826;SDS011;66927;48.812;9.118;2024-03-06T04:30:08;5.00;;;3.03;;
12826;SDS011;66927;48.812;9.118;2024-03-06T04:32:34;4.20;;;2.77;;
12826;SDS011;66927;48.812;9.118;2024-03-06T04:35:00;4.70;;;2.73;;
12826;SDS011;66927;48.812;9.118;2024-03-06T04:37:26;5.73;;;3.30;;
12826;SDS011;66927;48.812;9.118;2024-03-06T04:39:54;3.80;;;3.00;;
12826;SDS011;66927;48.812;9.118;2024-03-06T04:42:19;3.83;;;3.40;;
12826;SDS011;66927;48.812;9.118;2024-03-06T04:44:45;5.30;;;2.87;;
12826;SDS011;66927;48.812;9.118;2024-03-06T04:47:11;3.27;;;2.57;;
12826;SDS011;66927;48.812;9.118;2024-03-06T04:49:36;3.60;;;2.83;;
12826;SDS011;66927;48.812;9.118;2024-03-06T04:52:02;4.10;;;3.00;;
12826;SDS011;66927;48.812;9.118;2024-03-06T04:54:28;3.77;;;2.60;;
12826;SDS011;66927;48.812;9.118;2024-03-06T04:56:54;4.53;;;2.80;;
12826;SDS011;66927;48.812;9.118;2024-03-06T04:59:21;3.13;;;2.80;;
12826;SDS011;66927;48.812;9.118;2024-03-06T05:01:46;3.60;;;2.70;;
12826;SDS011;66927;48.812;9.118;2024-03-06T05:04:12;5.40;;;3.30;;
12826;SDS011;66927;48.812;9.118;2024-03-06T05:06:37;3.67;;;2.70;;
12826;SDS011;66927;48.812;9.118;2024-03-06T05:09:03;3.63;;;2.97;;
12826;SDS011;66927;48.812;9.118;2024-03-06T05:11:30;4.63;;;2.97;;
12826;SDS011;66927;48.812;9.118;2024-03-06T05:13:58;5.23;;;3.30;;
12826;SDS011;66927;48.812;9.118;2024-03-06T05:16:27;3.40;;;3.00;;
12826;SDS011;66927;48.812;9.118;2024-03-06T05:18:53;4.33;;;3.40;;
12826;SDS011;66927;48.812;9.118;2024-03-06T05:21:19;4.67;;;3.23;;
12826;SDS011;66927;48.812;9.118;2024-03-06T05:23:47;4.87;;;3.63;;
12826;SDS011;66927;48.812;9.118;2024-03-06T05:26:13;4.83;;;3.30;;
12826;SDS011;66927;48.812;9.118;2024-03-06T05:28:40;4.23;;;3.10;;
12826;SDS011;66927;48.812;9.118;2024-03-06T05:31:15;5.47;;;2.90;;
12826;SDS011;66927;48.812;9.118;2024-03-06T05:33:48;4.20;;;2.90;;
12826;SDS011;66927;48.812;9.118;2024-03-06T05:36:15;4.97;;;3.63;;
12826;SDS011;66927;48.812;9.118;2024-03-06T05:38:42;7.50;;;5.83;;
12826;SDS011;66927;48.812;9.118;2024-03-06T05:41:08;4.43;;;3.43;;
12826;SDS011;66927;48.812;9.118;2024-03-06T05:43:34;3.57;;;3.03;;
12826;SDS011;66927;48.812;9.118;2024-03-06T05:46:00;3.50;;;3.07;;
12826;SDS011;66927;48.812;9.118;2024-03-06T05:48:25;4.17;;;3.50;;
12826;SDS011;66927;48.812;9.118;2024-03-06T05:50:51;3.30;;;3.00;;
12826;SDS011;66927;48.812;9.118;2024-03-06T05:53:17;5.27;;;3.67;;
12826;SDS011;66927;48.812;9.118;2024-03-06T05:55:43;6.07;;;3.87;;
12826;SDS011;66927;48.812;9.118;2024-03-06T05:58:09;4.80;;;3.60;;
12826;SDS011;66927;48.812;9.118;2024-03-06T06:00:35;4.13;;;3.20;;
12826;SDS011;66927;48.812;9.118;2024-03-06T06:03:00;4.40;;;3.63;;
12826;SDS011;66927;48.812;9.118;2024-03-06T06:05:26;8.03;;;4.40;;
12826;SDS011;66927;48.812;9.118;2024-03-06T06:07:51;6.17;;;3.60;;
12826;SDS011;66927;48.812;9.118;2024-03-06T06:10:17;4.17;;;3.53;;
12826;SDS011;66927;48.812;9.118;2024-03-06T06:12:44;5.70;;;4.03;;
12826;SDS011;66927;48.812;9.118;2024-03-06T06:15:09;5.17;;;3.73;;
12826;SDS011;66927;48.812;9.118;2024-03-06T06:17:35;7.37;;;4.00;;
12826;SDS011;66927;48.812;9.118;2024-03-06T06:20:03;5.37;;;4.07;;
12826;SDS011;66927;48.812;9.118;2024-03-06T06:22:37;5.93;;;4.27;;
12826;SDS011;66927;48.812;9.118;2024-03-06T06:25:03;4.87;;;3.80;;
12826;SDS011;66927;48.812;9.118;2024-03-06T06:27:29;6.07;;;3.83;;
12826;SDS011;66927;48.812;9.118;2024-03-06T06:29:55;5.17;;;3.73;;
12826;SDS011;66927;48.812;9.118;2024-03-06T06:32:20;7.53;;;4.30;;
12826;SDS011;66927;48.812;9.118;2024-03-06T06:34:46;5.37;;;3.80;;
12826;SDS011;66927;48.812;9.118;2024-03-06T06:37:12;8.43;;;4.00;;
12826;SDS011;66927;48.812;9.118;2024-03-06T06:39:37;8.33;;;4.83;;
12826;SDS011;66927;48.812;9.118;2024-03-06T06:42:03;7.20;;;4.10;;
12826;SDS011;66927;48.812;9.118;2024-03-06T06:44:29;5.87;;;4.07;;
12826;SDS011;66927;48.812;9.118;2024-03-06T06:46:55;6.63;;;4.37;;
12826;SDS011;66927;48.812;9.118;2024-03-06T06:49:21;7.43;;;4.13;;
12826;SDS011;66927;48.812;9.118;2024-03-06T06:51:47;7.40;;;4.43;;
12826;SDS011;66927;48.812;9.118;2024-03-06T06:54:16;6.10;;;4.10;;
12826;SDS011;66927;48.812;9.118;2024-03-06T06:56:42;8.43;;;4.57;;
12826;SDS011;66927;48.812;9.118;2024-03-06T06:59:08;5.97;;;4.40;;
12826;SDS011;66927;48.812;9.118;2024-03-06T07:01:33;6.53;;;4.10;;
12826;SDS011;66927;48.812;9.118;2024-03-06T07:03:59;9.80;;;4.50;;
12826;SDS011;66927;48.812;9.118;2024-03-06T07:06:26;6.10;;;4.10;;
12826;SDS011;66927;48.812;9.118;2024-03-06T07:08:51;7.07;;;4.60;;
12826;SDS011;66927;48.812;9.118;2024-03-06T07:11:18;6.70;;;3.90;;
12826;SDS011;66927;48.812;9.118;2024-03-06T07:13:45;6.77;;;4.30;;
12826;SDS011;66927;48.812;9.118;2024-03-06T07:16:11;6.33;;;3.97;;
12826;SDS011;66927;48.812;9.118;2024-03-06T07:18:36;5.93;;;4.20;;
12826;SDS011;66927;48.812;9.118;2024-03-06T07:21:02;7.07;;;4.93;;
12826;SDS011;66927;48.812;9.118;2024-03-06T07:23:27;6.67;;;4.57;;
12826;SDS011;66927;48.812;9.118;2024-03-06T07:25:53;6.63;;;4.63;;
12826;SDS011;66927;48.812;9.118;2024-03-06T07:28:19;6.27;;;4.27;;
12826;SDS011;66927;48.812;9.118;2024-03-06T07:30:46;9.63;;;4.33;;
12826;SDS011;66927;48.812;9.118;2024-03-06T07:33:12;6.33;;;4.30;;
12826;SDS011;66927;48.812;9.118;2024-03-06T07:35:39;5.10;;;3.73;;
12826;SDS011;66927;48.812;9.118;2024-03-06T07:38:04;5.67;;;3.47;;
12826;SDS011;66927;48.812;9.118;2024-03-06T07:40:31;4.33;;;3.87;;
12826;SDS011;66927;48.812;9.118;2024-03-06T07:42:57;5.73;;;4.30;;
12826;SDS011;66927;48.812;9.118;2024-03-06T07:45:24;5.63;;;4.03;;
12826;SDS011;66927;48.812;9.118;2024-03-06T07:47:50;8.63;;;4.83;;
12826;SDS011;66927;48.812;9.118;2024-03-06T07:50:16;18.77;;;13.30;;
12826;SDS011;66927;48.812;9.118;2024-03-06T07:52:44;7.00;;;5.33;;
12826;SDS011;66927;48.812;9.118;2024-03-06T07:55:11;5.83;;;4.20;;
12826;SDS011;66927;48.812;9.118;2024-03-06T07:57:36;5.13;;;3.70;;
12826;SDS011;66927;48.812;9.118;2024-03-06T08:00:03;5.27;;;3.70;;
12826;SDS011;66927;48.812;9.118;2024-03-06T08:02:39;5.43;;;3.90;;
12826;SDS011;66927;48.812;9.118;2024-03-06T08:05:07;5.23;;;3.77;;
12826;SDS011;66927;48.812;9.118;2024-03-06T08:07:37;5.23;;;3.43;;
12826;SDS011;66927;48.812;9.118;2024-03-06T08:10:08;8.53;;;5.40;;
12826;SDS011;66927;48.812;9.118;2024-03-06T08:12:34;5.57;;;3.67;;
12826;SDS011;66927;48.812;9.118;2024-03-06T08:15:00;5.50;;;3.30;;
12826;SDS011;66927;48.812;9.118;2024-03-06T08:17:28;5.77;;;3.70;;
12826;SDS011;66927;48.812;9.118;2024-03-06T08:19:53;6.10;;;3.40;;
12826;SDS011;66927;48.812;9.118;2024-03-06T08:22:20;4.83;;;3.50;;
12826;SDS011;66927;48.812;9.118;2024-03-06T08:24:45;5.43;;;4.37;;
12826;SDS011;66927;48.812;9.118;2024-03-06T08:27:11;7.43;;;4.07;;
12826;SDS011;66927;48.812;9.118;2024-03-06T08:29:37;6.00;;;3.60;;
12826;SDS011;66927;48.812;9.118;2024-03-06T08:32:02;7.07;;;3.87;;
12826;SDS011;66927;48.812;9.118;2024-03-06T08:34:28;5.67;;;3.60;;
12826;SDS011;66927;48.812;9.118;2024-03-06T08:36:56;5.90;;;3.47;;
12826;SDS011;66927;48.812;9.118;2024-03-06T08:39:22;4.40;;;3.57;;
12826;SDS011;66927;48.812;9.118;2024-03-06T08:41:48;4.53;;;3.43;;
12826;SDS011;66927;48.812;9.118;2024-03-06T08:44:13;4.53;;;3.67;;
12826;SDS011;66927;48.812;9.118;2024-03-06T08:46:39;4.77;;;3.83;;
12826;SDS011;66927;48.812;9.118;2024-03-06T08:49:05;8.93;;;4.53;;
12826;SDS011;66927;48.812;9.118;2024-03-06T08:51:30;4.80;;;3.67;;
12826;SDS011;66927;48.812;9.118;2024-03-06T08:53:56;4.93;;;3.17;;
12826;SDS011;66927;48.812;9.118;2024-03-06T08:56:22;6.80;;;3.77;;
12826;SDS011;66927;48.812;9.118;2024-03-06T08:58:48;4.30;;;3.90;;
12826;SDS011;66927;48.812;9.118;2024-03-06T09:01:15;3.50;;;3.20;;
12826;SDS011;66927;48.812;9.118;2024-03-06T09:03:41;4.20;;;3.43;;
12826;SDS011;66927;48.812;9.118;2024-03-06T09:06:06;6.73;;;4.10;;
12826;SDS011;66927;48.812;9.118;2024-03-06T09:08:32;5.30;;;3.60;;
12826;SDS011;66927;48.812;9.118;2024-03-06T09:10:58;4.40;;;3.67;;
12826;SDS011;66927;48.812;9.118;2024-03-06T09:13:24;5.17;;;3.70;;
12826;SDS011;66927;48.812;9.118;2024-03-06T09:15:50;6.07;;;3.90;;
12826;SDS011;66927;48.812;9.118;2024-03-06T09:18:16;4.23;;;3.70;;
12826;SDS011;66927;48.812;9.118;2024-03-06T09:20:42;5.57;;;3.60;;
12826;SDS011;66927;48.812;9.118;2024-03-06T09:23:08;6.63;;;3.80;;
12826;SDS011;66927;48.812;9.118;2024-03-06T09:25:33;6.23;;;3.80;;
12826;SDS011;66927;48.812;9.118;2024-03-06T09:27:59;6.37;;;3.80;;
12826;SDS011;66927;48.812;9.118;2024-03-06T09:30:29;6.10;;;4.13;;
12826;SDS011;66927;48.812;9.118;2024-03-06T09:32:55;5.50;;;3.87;;
12826;SDS011;66927;48.812;9.118;2024-03-06T09:35:20;6.17;;;3.77;;
12826;SDS011;66927;48.812;9.118;2024-03-06T09:37:46;5.13;;;4.00;;
12826;SDS011;66927;48.812;9.118;2024-03-06T09:40:19;4.70;;;4.10;;
12826;SDS011;66927;48.812;9.118;2024-03-06T09:42:47;5.87;;;4.60;;
12826;SDS011;66927;48.812;9.118;2024-03-06T09:45:14;6.87;;;5.20;;
12826;SDS011;66927;48.812;9.118;2024-03-06T09:47:40;7.03;;;5.23;;
12826;SDS011;66927;48.812;9.118;2024-03-06T09:50:09;6.80;;;4.93;;
12826;SDS011;66927;48.812;9.118;2024-03-06T09:52:36;7.93;;;5.27;;
12826;SDS011;66927;48.812;9.118;2024-03-06T09:55:02;7.07;;;5.37;;
12826;SDS011;66927;48.812;9.118;2024-03-06T09:57:28;6.30;;;5.70;;
12826;SDS011;66927;48.812;9.118;2024-03-06T09:59:55;8.30;;;6.00;;
12826;SDS011;66927;48.812;9.118;2024-03-06T10:04:55;6.27;;;5.33;;
12826;SDS011;66927;48.812;9.118;2024-03-06T10:07:22;6.50;;;5.87;;
12826;SDS011;66927;48.812;9.118;2024-03-06T10:09:47;7.93;;;5.30;;
12826;SDS011;66927;48.812;9.118;2024-03-06T10:12:16;6.10;;;5.30;;
12826;SDS011;66927;48.812;9.118;2024-03-06T10:14:49;7.13;;;5.70;;
12826;SDS011;66927;48.812;9.118;2024-03-06T10:17:19;6.97;;;5.90;;
12826;SDS011;66927;48.812;9.118;2024-03-06T10:19:48;6.83;;;5.30;;
12826;SDS011;66927;48.812;9.118;2024-03-06T10:22:18;5.87;;;5.30;;
12826;SDS011;66927;48.812;9.118;2024-03-06T10:24:45;7.60;;;6.20;;
12826;SDS011;66927;48.812;9.118;2024-03-06T10:27:14;7.63;;;6.50;;
12826;SDS011;66927;48.812;9.118;2024-03-06T10:29:41;8.33;;;7.50;;
12826;SDS011;66927;48.812;9.118;2024-03-06T10:32:07;12.40;;;10.23;;
12826;SDS011;66927;48.812;9.118;2024-03-06T10:34:33;9.23;;;8.33;;
12826;SDS011;66927;48.812;9.118;2024-03-06T10:37:02;9.30;;;8.40;;
12826;SDS011;66927;48.812;9.118;2024-03-06T10:39:39;8.07;;;7.27;;
12826;SDS011;66927;48.812;9.118;2024-03-06T10:42:10;10.87;;;8.47;;
12826;SDS011;66927;48.812;9.118;2024-03-06T10:44:38;9.07;;;8.07;;
12826;SDS011;66927;48.812;9.118;2024-03-06T10:47:17;8.97;;;7.97;;
12826;SDS011;66927;48.812;9.118;2024-03-06T10:49:44;9.70;;;8.73;;
12826;SDS011;66927;48.812;9.118;2024-03-06T10:52:11;9.97;;;8.97;;
12826;SDS011;66927;48.812;9.118;2024-03-06T10:54:41;10.47;;;9.50;;
12826;SDS011;66927;48.812;9.118;2024-03-06T10:57:10;12.27;;;9.63;;
12826;SDS011;66927;48.812;9.118;2024-03-06T10:59:37;9.57;;;8.57;;
12826;SDS011;66927;48.812;9.118;2024-03-06T11:02:04;10.67;;;9.57;;
12826;SDS011;66927;48.812;9.118;2024-03-06T11:04:31;10.90;;;9.80;;
12826;SDS011;66927;48.812;9.118;2024-03-06T11:07:00;11.23;;;10.20;;
12826;SDS011;66927;48.812;9.118;2024-03-06T11:09:27;10.43;;;9.30;;
12826;SDS011;66927;48.812;9.118;2024-03-06T11:12:06;11.03;;;10.03;;
12826;SDS011;66927;48.812;9.118;2024-03-06T11:14:32;13.37;;;10.97;;
12826;SDS011;66927;48.812;9.118;2024-03-06T11:17:05;12.80;;;11.03;;
12826;SDS011;66927;48.812;9.118;2024-03-06T11:19:33;15.17;;;13.40;;
12826;SDS011;66927;48.812;9.118;2024-03-06T11:28:35;13.10;;;11.77;;
12826;SDS011;66927;48.812;9.118;2024-03-06T11:39:07;14.63;;;13.13;;
12826;SDS011;66927;48.812;9.118;2024-03-06T11:44:27;13.60;;;12.13;;
12826;SDS011;66927;48.812;9.118;2024-03-06T11:47:07;14.40;;;12.90;;
12826;SDS011;66927;48.812;9.118;2024-03-06T11:49:34;18.13;;;15.57;;
12826;SDS011;66927;48.812;9.118;2024-03-06T11:52:02;15.73;;;14.13;;
12826;SDS011;66927;48.812;9.118;2024-03-06T11:54:39;15.27;;;13.70;;
12826;SDS011;66927;48.812;9.118;2024-03-06T11:57:15;15.23;;;13.77;;
12826;SDS011;66927;48.812;9.118;2024-03-06T11:59:45;18.13;;;16.23;;
12826;SDS011;66927;48.812;9.118;2024-03-06T12:02:11;24.13;;;21.33;;
12826;SDS011;66927;48.812;9.118;2024-03-06T12:04:37;16.43;;;14.73;;
12826;SDS011;66927;48.812;9.118;2024-03-06T12:07:03;14.63;;;13.23;;
12826;SDS011;66927;48.812;9.118;2024-03-06T12:09:33;16.43;;;13.77;;
12826;SDS011;66927;48.812;9.118;2024-03-06T12:11:59;16.43;;;14.73;;
12826;SDS011;66927;48.812;9.118;2024-03-06T12:14:25;16.77;;;14.87;;
12826;SDS011;66927;48.812;9.118;2024-03-06T12:16:58;16.77;;;15.17;;
12826;SDS011;66927;48.812;9.118;2024-03-06T12:19:28;16.03;;;14.30;;
12826;SDS011;66927;48.812;9.118;2024-03-06T12:21:59;15.97;;;14.47;;
12826;SDS011;66927;48.812;9.118;2024-03-06T12:24:25;16.93;;;15.23;;
12826;SDS011;66927;48.812;9.118;2024-03-06T12:27:00;17.37;;;15.67;;
12826;SDS011;66927;48.812;9.118;2024-03-06T12:29:28;17.37;;;15.63;;
12826;SDS011;66927;48.812;9.118;2024-03-06T12:31:58;17.67;;;15.60;;
12826;SDS011;66927;48.812;9.118;2024-03-06T12:34:24;15.77;;;14.23;;
12826;SDS011;66927;48.812;9.118;2024-03-06T12:36:50;18.00;;;16.20;;
12826;SDS011;66927;48.812;9.118;2024-03-06T12:39:17;16.87;;;15.37;;
12826;SDS011;66927;48.812;9.118;2024-03-06T12:41:47;29.00;;;26.10;;
12826;SDS011;66927;48.812;9.118;2024-03-06T12:44:14;17.50;;;15.67;;
12826;SDS011;66927;48.812;9.118;2024-03-06T12:46:40;16.00;;;14.43;;
12826;SDS011;66927;48.812;9.118;2024-03-06T12:49:06;16.03;;;14.40;;
12826;SDS011;66927;48.812;9.118;2024-03-06T12:51:31;15.60;;;14.13;;
12826;SDS011;66927;48.812;9.118;2024-03-06T12:53:57;15.83;;;14.30;;
12826;SDS011;66927;48.812;9.118;2024-03-06T12:56:23;15.80;;;14.30;;
12826;SDS011;66927;48.812;9.118;2024-03-06T12:58:50;15.23;;;13.73;;
12826;SDS011;66927;48.812;9.118;2024-03-06T13:01:16;15.03;;;13.57;;
12826;SDS011;66927;48.812;9.118;2024-03-06T13:03:42;17.17;;;13.93;;
12826;SDS011;66927;48.812;9.118;2024-03-06T13:06:07;14.60;;;13.17;;
12826;SDS011;66927;48.812;9.118;2024-03-06T13:08:34;13.27;;;11.97;;
12826;SDS011;66927;48.812;9.118;2024-03-06T13:10:59;15.03;;;13.47;;
12826;SDS011;66927;48.812;9.118;2024-03-06T13:13:25;14.70;;;13.30;;
12826;SDS011;66927;48.812;9.118;2024-03-06T13:15:53;14.87;;;12.37;;
12826;SDS011;66927;48.812;9.118;2024-03-06T13:18:19;14.23;;;12.83;;
12826;SDS011;66927;48.812;9.118;2024-03-06T13:20:45;15.07;;;13.53;;
12826;SDS011;66927;48.812;9.118;2024-03-06T13:23:11;19.03;;;17.03;;
12826;SDS011;66927;48.812;9.118;2024-03-06T13:25:37;14.27;;;12.87;;
12826;SDS011;66927;48.812;9.118;2024-03-06T13:28:03;14.00;;;12.53;;
12826;SDS011;66927;48.812;9.118;2024-03-06T13:30:30;12.77;;;11.57;;
12826;SDS011;66927;48.812;9.118;2024-03-06T13:32:57;15.73;;;12.07;;
12826;SDS011;66927;48.812;9.118;2024-03-06T13:35:23;12.20;;;11.07;;
12826;SDS011;66927;48.812;9.118;2024-03-06T13:37:49;13.13;;;11.83;;
12826;SDS011;66927;48.812;9.118;2024-03-06T13:40:15;14.40;;;13.07;;
12826;SDS011;66927;48.812;9.118;2024-03-06T13:42:41;13.23;;;11.93;;
12826;SDS011;66927;48.812;9.118;2024-03-06T13:45:07;15.03;;;13.47;;
12826;SDS011;66927;48.812;9.118;2024-03-06T13:47:45;13.97;;;12.40;;
12826;SDS011;66927;48.812;9.118;2024-03-06T13:50:12;15.00;;;13.53;;
12826;SDS011;66927;48.812;9.118;2024-03-06T13:52:39;14.83;;;12.63;;
12826;SDS011;66927;48.812;9.118;2024-03-06T13:55:06;13.40;;;12.10;;
12826;SDS011;66927;48.812;9.118;2024-03-06T13:57:33;15.00;;;13.50;;
12826;SDS011;66927;48.812;9.118;2024-03-06T14:00:00;14.73;;;13.33;;
12826;SDS011;66927;48.812;9.118;2024-03-06T14:02:30;13.93;;;12.63;;
12826;SDS011;66927;48.812;9.118;2024-03-06T14:04:56;15.10;;;13.10;;
12826;SDS011;66927;48.812;9.118;2024-03-06T14:07:22;16.20;;;14.53;;
12826;SDS011;66927;48.812;9.118;2024-03-06T14:09:48;17.07;;;15.30;;
12826;SDS011;66927;48.812;9.118;2024-03-06T14:12:17;16.80;;;15.20;;
12826;SDS011;66927;48.812;9.118;2024-03-06T14:14:43;14.20;;;12.80;;
12826;SDS011;66927;48.812;9.118;2024-03-06T14:17:10;13.43;;;12.13;;
12826;SDS011;66927;48.812;9.118;2024-03-06T14:19:37;13.57;;;12.27;;
12826;SDS011;66927;48.812;9.118;2024-03-06T14:22:04;14.17;;;12.67;;
12826;SDS011;66927;48.812;9.118;2024-03-06T14:24:30;15.73;;;13.10;;
12826;SDS011;66927;48.812;9.118;2024-03-06T14:26:55;15.10;;;13.60;;
12826;SDS011;66927;48.812;9.118;2024-03-06T14:29:21;14.47;;;12.97;;
12826;SDS011;66927;48.812;9.118;2024-03-06T14:31:47;14.33;;;12.93;;
12826;SDS011;66927;48.812;9.118;2024-03-06T14:34:12;14.83;;;13.30;;
12826;SDS011;66927;48.812;9.118;2024-03-06T14:36:39;14.97;;;13.37;;
12826;SDS011;66927;48.812;9.118;2024-03-06T14:39:05;14.93;;;13.43;;
12826;SDS011;66927;48.812;9.118;2024-03-06T14:41:32;14.23;;;12.77;;
12826;SDS011;66927;48.812;9.118;2024-03-06T14:43:57;14.30;;;13.00;;
12826;SDS011;66927;48.812;9.118;2024-03-06T14:46:23;17.23;;;13.20;;
12826;SDS011;66927;48.812;9.118;2024-03-06T14:48:48;14.70;;;13.20;;
12826;SDS011;66927;48.812;9.118;2024-03-06T14:51:14;14.60;;;13.10;;
12826;SDS011;66927;48.812;9.118;2024-03-06T14:53:40;15.40;;;12.77;;
12826;SDS011;66927;48.812;9.118;2024-03-06T14:56:06;12.83;;;11.53;;
12826;SDS011;66927;48.812;9.118;2024-03-06T14:58:32;13.83;;;12.47;;